Accueil
METAR-TAF:

METAR-TAF

Aéroports :

Aéroport d'Iakoutsk

Iakoutsk, Russie

latitude: 62-01N, longitude: 129-43E, altitude: 103 m

Observation

Le bulletin a été fait il y a 33 minutes, à 21:00 UTC
Vent calme
Température -25°C
Humidité 76%
Pression 1016 hPa
Visibilité 10 km ou plus
neige faible

METAR: UEEE 192100Z 00000MPS 9999 -SN NSC M25/M28 Q1016 R23L/420155 NOSIG RMK QFE753

Heure: 06:33 (21:33 UTC)

Prévision

Le bulletin a été fait il y a 1 heure et 33 minutes, à 20:00 UTC
Prévision valable du 19 à 21 UTC au 21 à 03 UTC
Vent 6 kt de nord-ouest
Visibilité: 3200 m
Nuages épars à une hauteur de 2000 ft
Ciel couvert à une hauteur de 7000 ft
neige faible
Temporairement
du 19 à 21 UTC au 20 à 03 UTC
Visibilité: 0300 m
à une hauteur de 300 ft
neige, brouillard givrant

TAF: UEEE 192000Z 1921/2103 32003MPS 3200 -SN SCT020 OVC070 TEMPO 1921/2003 0300 SN FZFG VV003

Observations et prévisions météorologiques de plus de 4000 aéroports (messages METAR et TAF).

Les stations disponibles sont représentées par des disques jaunes et rouges sur la carte.

Passer la souris dessus pour voir le nom de la station.

Cliquer dessus pour voir les observations et prévisions météorologiques.

Pour changer de carte: cliquez sur les boutons verts avec une croix noire pour zoomer, sur le bouton vert avec un tiret pour effectuer un zoom arrière, ou sur les flèches vertes pour les cartes adjacentes.


METAR-TAF: